Time;durP1;ratioP1;P1;durP2;ratioP2;P2;SDS_P1;SDS_P2;PMS_P1;PMS_P2;Temp;Humidity;BMP_temperature;BMP_pressure;BME280_temperature;BME280_humidity;BME280_pressure;Samples;Min_cycle;Max_cycle;Signal;HPM_P1;HPM_P2
2022/04/28 00:02:17;;;;;;;;;;;;;;;;;;4405258;32;20022;-76
2022/04/28 00:04:42;;;;;;;22.02;11.95;;;;;;;;;;4405205;32;19949;-76
2022/04/28 00:07:07;;;;;;;;;;;;;;;;;;4407057;32;20332;-76
2022/04/28 00:09:33;;;;;;;20.55;12.75;;;;;;;;;;4408023;32;19952;-76
2022/04/28 00:11:58;;;;;;;;;;;;;;;;;;4408906;32;20026;-76
2022/04/28 00:14:30;;;;;;;27.05;13.48;;;;;;;;;;4407114;32;19968;-76
2022/04/28 00:16:56;;;;;;;26.45;13.75;;;;;;;;;;4408540;32;20136;-77
2022/04/28 00:19:21;;;;;;;;;;;;;;;;;;4407503;32;20022;-75
2022/04/28 00:22:31;;;;;;;24.73;12.88;;;;;;;;;;4407594;32;19975;-76
2022/04/28 00:24:32;;;;;;;19.92;11.90;;;;;;;;;;4401691;32;20068;-76
2022/04/28 00:26:57;;;;;;;;;;;;;;;;;;4409247;32;20030;-76
2022/04/28 00:29:23;;;;;;;22.60;12.60;;;;;;;;;;4421797;32;19973;-76
2022/04/28 00:31:48;;;;;;;;;;;;;;;;;;4409053;32;20142;-76
2022/04/28 00:34:13;;;;;;;25.50;12.78;;;;;;;;;;4408257;32;19941;-76
2022/04/28 00:36:38;;;;;;;;;;;;;;;;;;4408182;32;20088;-75
2022/04/28 00:39:03;;;;;;;19.65;12.80;;;;;;;;;;4424735;27;20259;-68
2022/04/28 00:41:29;;;;;;;;;;;;;;;;;;4410372;32;20160;-68
2022/04/28 00:43:54;;;;;;;21.33;11.77;;;;;;;;;;4408544;32;19943;-69
2022/04/28 00:46:19;;;;;;;;;;;;;;;;;;4424168;32;20222;-69
2022/04/28 00:51:30;;;;;;;24.83;12.02;;;;;;;;;;4422287;32;20118;-68
2022/04/28 00:53:56;;;;;;;17.85;11.27;;;;;;;;;;4408912;32;20343;-69
2022/04/28 00:56:21;;;;;;;;;;;;;;;;;;4422437;32;20057;-69
2022/04/28 00:58:47;;;;;;;21.83;12.07;;;;;;;;;;4423662;32;19944;-69
2022/04/28 01:01:13;;;;;;;25.17;11.45;;;;;;;;;;4423750;32;20057;-69
2022/04/28 01:03:38;;;;;;;;;;;;;;;;;;4423025;32;20123;-69
2022/04/28 01:06:03;;;;;;;24.48;11.77;;;;;;;;;;4423357;32;19933;-69
2022/04/28 01:08:28;;;;;;;;;;;;;;;;;;4423008;32;20149;-69
2022/04/28 01:10:53;;;;;;;16.85;10.55;;;;;;;;;;4422394;32;19976;-69
2022/04/28 01:13:18;;;;;;;;;;;;;;;;;;4409963;32;20076;-69
2022/04/28 01:15:45;;;;;;;20.75;11.10;;;;;;;;;;4423121;32;19985;-68
2022/04/28 01:18:10;;;;;;;20.15;11.12;;;;;;;;;;4423472;32;20105;-69
2022/04/28 01:20:35;;;;;;;;;;;;;;;;;;4422917;32;20021;-68
2022/04/28 01:23:00;;;;;;;17.30;9.13;;;;;;;;;;4423042;32;19933;-68
2022/04/28 01:25:25;;;;;;;;;;;;;;;;;;4422355;32;20034;-69
2022/04/28 01:27:51;;;;;;;22.30;11.45;;;;;;;;;;4407305;32;19941;-69
2022/04/28 01:30:16;;;;;;;;;;;;;;;;;;4422054;32;20391;-69
2022/04/28 01:32:41;;;;;;;23.15;9.88;;;;;;;;;;4423072;32;19975;-69
2022/04/28 01:35:06;;;;;;;;;;;;;;;;;;4423128;32;20141;-68
2022/04/28 01:37:32;;;;;;;19.27;9.18;;;;;;;;;;4421336;32;19980;-68
2022/04/28 01:39:57;;;;;;;;;;;;;;;;;;4402283;32;20121;-69
2022/04/28 01:42:25;;;;;;;22.58;9.48;;;;;;;;;;4393214;32;19981;-69
2022/04/28 01:44:51;;;;;;;17.08;9.85;;;;;;;;;;4391616;32;20026;-69
2022/04/28 01:47:16;;;;;;;;;;;;;;;;;;4391969;32;20083;-70
2022/04/28 01:49:41;;;;;;;22.13;10.02;;;;;;;;;;4406425;32;20299;-69
2022/04/28 01:55:00;;;;;;;17.83;9.15;;;;;;;;;;4408019;32;19940;-69
2022/04/28 01:57:29;;;;;;;18.00;9.40;;;;;;;;;;4407289;32;20417;-69
2022/04/28 01:59:56;;;;;;;16.87;8.60;;;;;;;;;;4407421;32;20477;-69
2022/04/28 02:02:21;;;;;;;15.63;7.75;;;;;;;;;;4407273;32;20052;-69
2022/04/28 02:04:47;;;;;;;;;;;;;;;;;;4406646;32;20034;-69
2022/04/28 02:07:13;;;;;;;16.80;7.53;;;;;;;;;;4393077;32;19934;-69
2022/04/28 02:09:39;;;;;;;17.62;7.90;;;;;;;;;;4392754;32;20201;-70
2022/04/28 02:12:04;;;;;;;;;;;;;;;;;;4406390;32;20026;-69
2022/04/28 02:14:29;;;;;;;15.40;8.07;;;;;;;;;;4393992;32;20000;-69
2022/04/28 02:16:54;;;;;;;21.35;9.85;;;;;;;;;;4405828;32;20053;-69
2022/04/28 02:19:19;;;;;;;;;;;;;;;;;;4407566;32;20049;-70
2022/04/28 02:21:44;;;;;;;19.00;8.40;;;;;;;;;;4407036;32;19933;-69
2022/04/28 02:24:09;;;;;;;21.23;9.57;;;;;;;;;;4406140;32;20141;-69
2022/04/28 02:26:34;;;;;;;;;;;;;;;;;;4406732;32;20122;-69
2022/04/28 02:29:00;;;;;;;22.77;8.43;;;;;;;;;;4393114;32;19945;-69
2022/04/28 02:31:25;;;;;;;;;;;;;;;;;;4407142;32;20446;-69
2022/04/28 02:33:50;;;;;;;15.80;8.70;;;;;;;;;;4400205;32;19941;-70
2022/04/28 02:36:15;;;;;;;;;;;;;;;;;;4391530;32;20027;-70
2022/04/28 02:38:40;;;;;;;24.35;8.82;;;;;;;;;;4397398;32;19980;-69
2022/04/28 02:41:06;;;;;;;;;;;;;;;;;;4406061;32;20459;-69
2022/04/28 02:43:31;;;;;;;15.05;7.50;;;;;;;;;;4391505;32;20262;-69
2022/04/28 02:45:58;;;;;;;;;;;;;;;;;;4391615;32;20049;-68
2022/04/28 02:48:23;;;;;;;24.05;9.05;;;;;;;;;;4393571;32;19986;-70
2022/04/28 02:50:48;;;;;;;;;;;;;;;;;;4405737;32;20030;-70
2022/04/28 02:53:14;;;;;;;16.55;8.80;;;;;;;;;;4392507;32;19937;-70
2022/04/28 02:55:40;;;;;;;;;;;;;;;;;;4393560;32;20154;-68
2022/04/28 02:58:06;;;;;;;14.65;9.18;;;;;;;;;;4391431;32;20391;-68
2022/04/28 03:00:31;;;;;;;;;;;;;;;;;;4406869;32;20019;-69
2022/04/28 03:02:56;;;;;;;19.23;9.95;;;;;;;;;;4406846;32;19937;-69
2022/04/28 03:05:21;;;;;;;;;;;;;;;;;;4405751;32;20023;-69
2022/04/28 03:10:49;;;;;;;19.05;10.75;;;;;;;;;;4391962;32;20466;-69
2022/04/28 03:13:17;;;;;;;19.08;10.05;;;;;;;;;;4390775;32;20035;-70
2022/04/28 03:15:42;;;;;;;20.45;11.23;;;;;;;;;;4390521;32;20091;-69
2022/04/28 03:18:07;;;;;;;;;;;;;;;;;;4390509;32;20336;-68
2022/04/28 03:20:32;;;;;;;20.33;10.43;;;;;;;;;;4390441;32;20283;-69
2022/04/28 03:22:57;;;;;;;;;;;;;;;;;;4394161;32;20181;-68
2022/04/28 03:25:23;;;;;;;21.02;10.68;;;;;;;;;;4391480;32;20237;-68
2022/04/28 03:27:48;;;;;;;;;;;;;;;;;;4406260;32;20079;-69
2022/04/28 03:30:13;;;;;;;18.95;10.10;;;;;;;;;;4406767;32;20031;-69
2022/04/28 03:32:38;;;;;;;;;;;;;;;;;;4406022;32;20084;-68
2022/04/28 03:35:03;;;;;;;18.62;11.00;;;;;;;;;;4406788;32;19934;-68
2022/04/28 03:37:28;;;;;;;;;;;;;;;;;;4405487;32;20657;-68
2022/04/28 03:39:53;;;;;;;22.27;11.63;;;;;;;;;;4405851;32;19933;-69
2022/04/28 03:42:19;;;;;;;;;;;;;;;;;;4409108;32;20049;-69
2022/04/28 03:44:44;;;;;;;25.67;11.45;;;;;;;;;;4407903;32;19942;-69
2022/04/28 03:47:09;;;;;;;;;;;;;;;;;;4409266;32;20023;-69
2022/04/28 03:49:34;;;;;;;23.73;10.77;;;;;;;;;;4407637;32;20316;-68
2022/04/28 03:52:00;;;;;;;;;;;;;;;;;;4408655;32;20071;-69
2022/04/28 03:54:25;;;;;;;27.00;11.20;;;;;;;;;;4394132;32;19941;-68
2022/04/28 03:56:50;;;;;;;;;;;;;;;;;;4395114;32;20122;-68
2022/04/28 03:59:15;;;;;;;23.27;13.20;;;;;;;;;;4395567;32;19953;-68
2022/04/28 04:01:40;;;;;;;;;;;;;;;;;;4408523;32;20158;-69
2022/04/28 04:04:06;;;;;;;26.62;11.63;;;;;;;;;;4402978;32;19941;-69
2022/04/28 04:06:31;;;;;;;;;;;;;;;;;;4394740;32;20027;-69
2022/04/28 04:08:56;;;;;;;18.98;11.70;;;;;;;;;;4393495;32;20262;-69
2022/04/28 04:11:21;;;;;;;;;;;;;;;;;;4408643;32;20384;-69
2022/04/28 04:13:47;;;;;;;23.92;13.30;;;;;;;;;;4409173;32;19942;-68
2022/04/28 04:16:12;;;;;;;;;;;;;;;;;;4409453;32;20090;-69
2022/04/28 04:18:37;;;;;;;22.05;10.65;;;;;;;;;;4408127;32;20048;-69
2022/04/28 04:21:02;;;;;;;;;;;;;;;;;;4395641;32;20057;-69
2022/04/28 04:23:27;;;;;;;21.55;12.27;;;;;;;;;;4409078;32;19941;-70
2022/04/28 04:25:52;;;;;;;;;;;;;;;;;;4394180;32;20026;-69
2022/04/28 04:28:18;;;;;;;29.73;12.93;;;;;;;;;;4393087;32;19941;-69
2022/04/28 04:33:27;;;;;;;26.55;12.02;;;;;;;;;;4407793;32;19928;-69
2022/04/28 04:35:52;;;;;;;;;;;;;;;;;;4409279;32;20347;-69
2022/04/28 04:38:17;;;;;;;22.35;12.70;;;;;;;;;;4408233;32;19937;-69
2022/04/28 04:40:42;;;;;;;;;;;;;;;;;;4393911;32;20026;-69
2022/04/28 04:43:13;;;;;;;16.02;12.23;;;;;;;;;;4407216;32;20270;-69
2022/04/28 04:45:38;;;;;;;25.05;12.27;;;;;;;;;;4409304;32;20191;-68
2022/04/28 04:48:03;;;;;;;19.20;11.12;;;;;;;;;;4395199;32;20031;-69
2022/04/28 04:50:28;;;;;;;;;;;;;;;;;;4409215;32;20203;-69
2022/04/28 04:52:53;;;;;;;24.02;12.90;;;;;;;;;;4404055;32;19938;-68
2022/04/28 04:55:19;;;;;;;20.75;11.90;;;;;;;;;;4393964;32;20185;-69
2022/04/28 04:57:44;;;;;;;;;;;;;;;;;;4403163;32;20193;-69
2022/04/28 05:00:09;;;;;;;19.87;11.00;;;;;;;;;;4408741;32;20002;-69
2022/04/28 05:02:34;;;;;;;;;;;;;;;;;;4393637;32;20126;-69
2022/04/28 05:04:59;;;;;;;23.38;12.02;;;;;;;;;;4394384;32;20005;-69
2022/04/28 05:07:25;;;;;;;;;;;;;;;;;;4408869;32;20049;-69
2022/04/28 05:09:50;;;;;;;25.17;12.68;;;;;;;;;;4389700;32;19969;-69
2022/04/28 05:12:15;;;;;;;21.58;10.73;;;;;;;;;;4408234;32;20030;-69
2022/04/28 05:14:40;;;;;;;;;;;;;;;;;;4408306;32;20109;-69
2022/04/28 05:17:05;;;;;;;33.70;11.57;;;;;;;;;;4407606;32;19986;-69
2022/04/28 05:19:30;;;;;;;;;;;;;;;;;;4412511;32;20027;-69
2022/04/28 05:21:55;;;;;;;21.77;11.77;;;;;;;;;;4394710;32;19956;-69
2022/04/28 05:24:21;;;;;;;;;;;;;;;;;;4408083;32;20122;-68
2022/04/28 05:26:46;;;;;;;24.33;12.52;;;;;;;;;;4404922;32;20303;-69
2022/04/28 05:29:11;;;;;;;;;;;;;;;;;;4405741;32;20057;-69
2022/04/28 05:31:37;;;;;;;21.50;11.60;;;;;;;;;;4406951;32;19937;-68
2022/04/28 05:34:02;;;;;;;;;;;;;;;;;;4407369;32;20030;-69
2022/04/28 05:36:28;;;;;;;23.27;12.75;;;;;;;;;;4405428;32;20349;-69
2022/04/28 05:38:54;;;;;;;23.27;10.73;;;;;;;;;;4406232;32;20405;-69
2022/04/28 05:41:20;;;;;;;;;;;;;;;;;;4398089;32;20078;-69
2022/04/28 05:46:29;;;;;;;20.37;10.40;;;;;;;;;;4390605;32;20076;-69
2022/04/28 05:48:54;;;;;;;;;;;;;;;;;;4391914;32;20031;-69
2022/04/28 05:51:19;;;;;;;16.15;10.32;;;;;;;;;;4392330;32;19993;-69
2022/04/28 05:53:44;;;;;;;;;;;;;;;;;;4391259;32;20030;-68
2022/04/28 05:56:09;;;;;;;24.60;11.12;;;;;;;;;;4392114;32;20008;-70
2022/04/28 05:58:34;;;;;;;;;;;;;;;;;;4390969;32;20166;-70
2022/04/28 06:01:00;;;;;;;24.12;12.10;;;;;;;;;;4391056;32;19989;-69
2022/04/28 06:03:25;;;;;;;;;;;;;;;;;;4403342;32;20148;-69
2022/04/28 06:05:51;;;;;;;21.50;10.45;;;;;;;;;;4405391;32;19948;-70
2022/04/28 06:08:16;;;;;;;;;;;;;;;;;;4407205;32;20357;-70
2022/04/28 06:10:41;;;;;;;25.75;10.95;;;;;;;;;;4405440;32;20255;-69
2022/04/28 06:13:06;;;;;;;;;;;;;;;;;;4407893;32;20127;-70
2022/04/28 06:15:31;;;;;;;24.25;11.23;;;;;;;;;;4405229;32;19937;-70
2022/04/28 06:17:56;;;;;;;;;;;;;;;;;;4406052;32;20076;-70
2022/04/28 06:20:22;;;;;;;20.08;9.93;;;;;;;;;;4392964;32;20275;-70
2022/04/28 06:22:47;;;;;;;;;;;;;;;;;;4393520;32;20058;-68
2022/04/28 06:25:13;;;;;;;18.95;8.95;;;;;;;;;;4393009;32;19949;-69
2022/04/28 06:27:38;;;;;;;;;;;;;;;;;;4407316;32;20431;-69
2022/04/28 06:30:04;;;;;;;25.00;11.25;;;;;;;;;;4405995;32;19974;-69
2022/04/28 06:32:29;;;;;;;;;;;;;;;;;;4405534;32;20141;-70
2022/04/28 06:34:54;;;;;;;13.20;7.62;;;;;;;;;;4405350;32;19937;-70
2022/04/28 06:37:19;;;;;;;;;;;;;;;;;;4405848;32;20388;-69
2022/04/28 06:39:45;;;;;;;19.77;9.52;;;;;;;;;;4390740;32;20344;-69
2022/04/28 06:42:10;;;;;;;;;;;;;;;;;;4406262;32;20525;-69
2022/04/28 06:44:36;;;;;;;14.87;7.72;;;;;;;;;;4393196;32;19937;-68
2022/04/28 06:47:01;;;;;;;;;;;;;;;;;;4405411;32;20026;-69
2022/04/28 06:49:26;;;;;;;19.37;7.97;;;;;;;;;;4405169;32;19984;-69
2022/04/28 06:51:51;;;;;;;;;;;;;;;;;;4406559;32;20034;-70
2022/04/28 06:54:16;;;;;;;29.87;8.90;;;;;;;;;;4404514;32;19938;-70
2022/04/28 06:56:41;;;;;;;;;;;;;;;;;;4407204;32;20027;-69
2022/04/28 06:59:06;;;;;;;20.17;8.20;;;;;;;;;;4404806;32;19989;-69
2022/04/28 07:01:32;;;;;;;;;;;;;;;;;;4405529;32;20046;-70
2022/04/28 07:03:57;;;;;;;15.35;7.65;;;;;;;;;;4390690;32;20311;-70
2022/04/28 07:06:22;;;;;;;;;;;;;;;;;;4405708;32;20022;-70
2022/04/28 07:08:47;;;;;;;15.45;7.47;;;;;;;;;;4405183;32;19952;-68
2022/04/28 07:11:12;;;;;;;;;;;;;;;;;;4406748;32;20053;-69
2022/04/28 07:13:37;;;;;;;21.52;8.80;;;;;;;;;;4405719;32;19933;-69
2022/04/28 07:16:02;;;;;;;;;;;;;;;;;;4404650;32;20069;-70
2022/04/28 07:18:27;;;;;;;11.10;6.40;;;;;;;;;;4406531;32;19934;-69
2022/04/28 07:20:52;;;;;;;;;;;;;;;;;;4391326;32;20023;-69
2022/04/28 07:23:18;;;;;;;15.85;6.50;;;;;;;;;;4404695;32;19945;-69
2022/04/28 07:25:43;;;;;;;;;;;;;;;;;;4405429;32;20030;-69
2022/04/28 07:28:08;;;;;;;16.40;6.43;;;;;;;;;;4405105;32;20029;-69
2022/04/28 07:30:33;;;;;;;;;;;;;;;;;;4405785;32;20160;-69
2022/04/28 07:32:58;;;;;;;13.20;6.22;;;;;;;;;;4404899;32;20363;-69
2022/04/28 07:35:24;;;;;;;;;;;;;;;;;;4404490;32;20186;-69
2022/04/28 07:37:49;;;;;;;15.18;5.87;;;;;;;;;;4391574;32;19961;-69
2022/04/28 07:40:14;;;;;;;;;;;;;;;;;;4404993;32;20341;-69
2022/04/28 07:42:40;;;;;;;13.90;7.43;;;;;;;;;;4405516;32;20373;-69
2022/04/28 07:45:05;;;;;;;;;;;;;;;;;;4405592;32;20026;-69
2022/04/28 07:47:31;;;;;;;15.23;7.12;;;;;;;;;;4404771;32;20292;-69
2022/04/28 07:49:56;;;;;;;;;;;;;;;;;;4406232;32;20030;-68
2022/04/28 07:52:21;;;;;;;21.85;7.07;;;;;;;;;;4404188;32;19938;-68
2022/04/28 07:54:46;;;;;;;;;;;;;;;;;;4390677;32;20569;-70
2022/04/28 07:57:12;;;;;;;16.02;5.18;;;;;;;;;;4403900;32;20309;-69
2022/04/28 07:59:38;;;;;;;;;;;;;;;;;;4391027;32;20025;-69
2022/04/28 08:02:03;;;;;;;19.37;7.25;;;;;;;;;;4404084;32;19942;-69
2022/04/28 08:04:28;;;;;;;;;;;;;;;;;;4406380;32;20069;-69
2022/04/28 08:06:54;;;;;;;14.35;5.60;;;;;;;;;;4406259;32;20303;-69
2022/04/28 08:09:19;;;;;;;;;;;;;;;;;;4405357;32;20092;-69
2022/04/28 08:11:44;;;;;;;12.18;5.40;;;;;;;;;;4391564;32;19931;-69
2022/04/28 08:14:10;;;;;;;;;;;;;;;;;;4405918;32;20064;-69
2022/04/28 08:16:35;;;;;;;14.27;4.90;;;;;;;;;;4406051;32;20337;-70
2022/04/28 08:19:01;;;;;;;;;;;;;;;;;;4405231;32;20022;-69
2022/04/28 08:21:26;;;;;;;18.80;5.00;;;;;;;;;;4390668;32;19930;-68
2022/04/28 08:23:52;;;;;;;;;;;;;;;;;;4404233;32;20119;-68
2022/04/28 08:26:17;;;;;;;11.38;4.40;;;;;;;;;;4403930;32;19949;-69
2022/04/28 08:28:42;;;;;;;12.25;5.10;;;;;;;;;;4406016;32;20057;-68
2022/04/28 08:31:07;;;;;;;;;;;;;;;;;;4394215;32;20331;-70
2022/04/28 08:33:32;;;;;;;11.90;4.85;;;;;;;;;;4408795;32;19933;-69
2022/04/28 08:35:58;;;;;;;;;;;;;;;;;;4395064;32;20026;-69
2022/04/28 08:38:23;;;;;;;13.02;4.53;;;;;;;;;;4406866;32;19971;-69
2022/04/28 08:40:48;;;;;;;;;;;;;;;;;;4407758;32;20069;-70
2022/04/28 08:43:14;;;;;;;11.63;4.43;;;;;;;;;;4407277;32;19938;-69
2022/04/28 08:46:50;;;;;;;8.85;5.15;;;;;;;;;;4408105;32;20418;-69
2022/04/28 08:48:27;;;;;;;;;;;;;;;;;;4406797;32;20458;-70
2022/04/28 08:50:52;;;;;;;10.27;5.55;;;;;;;;;;4409001;32;20334;-70
2022/04/28 08:53:17;;;;;;;;;;;;;;;;;;4392999;32;20030;-70
2022/04/28 08:55:42;;;;;;;13.02;5.25;;;;;;;;;;4408114;32;19938;-69
2022/04/28 08:58:07;;;;;;;;;;;;;;;;;;4407210;32;20045;-69
2022/04/28 09:00:32;;;;;;;15.55;5.53;;;;;;;;;;4408719;32;20342;-70
2022/04/28 09:02:57;;;;;;;14.00;5.60;;;;;;;;;;4407894;32;20042;-69
2022/04/28 09:05:23;;;;;;;;;;;;;;;;;;4406436;32;20018;-70
2022/04/28 09:07:48;;;;;;;12.35;5.32;;;;;;;;;;4407078;32;20012;-69
2022/04/28 09:10:13;;;;;;;;;;;;;;;;;;4406844;32;20506;-69
2022/04/28 09:12:53;;;;;;;12.63;4.60;;;;;;;;;;4406724;32;19979;-71
2022/04/28 09:15:18;;;;;;;10.13;5.12;;;;;;;;;;4392771;32;20094;-70
2022/04/28 09:17:44;;;;;;;13.57;5.05;;;;;;;;;;4393691;32;20455;-69
2022/04/28 09:20:13;;;;;;;15.63;4.75;;;;;;;;;;4407760;32;20062;-68
2022/04/28 09:22:41;;;;;;;13.05;4.93;;;;;;;;;;4406932;32;20380;-69
2022/04/28 09:25:08;;;;;;;13.48;5.65;;;;;;;;;;4406286;32;20019;-69
2022/04/28 09:27:33;;;;;;;11.12;4.15;;;;;;;;;;4408381;32;20328;-69
2022/04/28 09:29:58;;;;;;;;;;;;;;;;;;4407370;32;20489;-69
2022/04/28 09:32:24;;;;;;;13.52;4.90;;;;;;;;;;4406437;32;19951;-69
2022/04/28 09:34:50;;;;;;;12.32;4.80;;;;;;;;;;4406820;32;20069;-69
2022/04/28 09:37:19;;;;;;;12.82;4.80;;;;;;;;;;4406951;32;20344;-69
2022/04/28 09:42:35;;;;;;;9.35;4.40;;;;;;;;;;4407711;32;20470;-70
2022/04/28 09:45:01;;;;;;;9.82;4.75;;;;;;;;;;4407223;32;20026;-69
2022/04/28 09:47:26;;;;;;;;;;;;;;;;;;4407691;32;20145;-69
2022/04/28 09:49:52;;;;;;;12.30;4.53;;;;;;;;;;4392846;32;20315;-69
2022/04/28 09:52:41;;;;;;;13.93;4.57;;;;;;;;;;4405496;32;20060;-69
2022/04/28 09:55:06;;;;;;;16.20;5.03;;;;;;;;;;4405654;32;20049;-68
2022/04/28 09:57:31;;;;;;;16.77;6.05;;;;;;;;;;4391745;32;20061;-69
2022/04/28 09:59:56;;;;;;;;;;;;;;;;;;4407463;32;20408;-69
2022/04/28 10:02:23;;;;;;;13.18;4.62;;;;;;;;;;4405014;32;19944;-69
2022/04/28 10:04:49;;;;;;;14.57;4.95;;;;;;;;;;4407171;32;20061;-70
2022/04/28 10:07:14;;;;;;;10.90;5.00;;;;;;;;;;4405760;32;20022;-69
2022/04/28 10:09:39;;;;;;;;;;;;;;;;;;4407344;32;20064;-69
2022/04/28 10:12:05;;;;;;;9.73;5.40;;;;;;;;;;4407037;32;19962;-68
2022/04/28 10:14:30;;;;;;;;;;;;;;;;;;4407242;32;20121;-70
2022/04/28 10:16:57;;;;;;;16.70;6.15;;;;;;;;;;4404698;32;19946;-69
2022/04/28 10:19:25;;;;;;;9.23;4.57;;;;;;;;;;4406531;32;20409;-70
2022/04/28 10:21:53;;;;;;;10.85;5.75;;;;;;;;;;4392071;32;20076;-69
2022/04/28 10:33:06;;;;;;;11.85;5.47;;;;;;;;;;4406371;32;20101;-69
2022/04/28 10:35:37;;;;;;;9.45;5.45;;;;;;;;;;4379595;32;20056;-70
2022/04/28 10:38:18;;;;;;;10.80;5.70;;;;;;;;;;4393119;32;20027;-69
2022/04/28 10:40:57;;;;;;;15.82;6.03;;;;;;;;;;4404919;32;20099;-69
2022/04/28 10:43:23;;;;;;;12.23;6.22;;;;;;;;;;4406184;32;20027;-70
2022/04/28 10:45:49;;;;;;;14.90;5.53;;;;;;;;;;4405971;32;20026;-69
2022/04/28 10:48:25;;;;;;;12.15;6.87;;;;;;;;;;4406075;32;20068;-70
2022/04/28 10:50:59;;;;;;;10.80;6.10;;;;;;;;;;4404107;32;20056;-69
2022/04/28 10:53:25;;;;;;;11.12;4.93;;;;;;;;;;4406371;32;20043;-70
2022/04/28 10:55:50;;;;;;;10.45;5.35;;;;;;;;;;4391804;32;20058;-70
2022/04/28 10:58:15;;;;;;;;;;;;;;;;;;4390927;32;20023;-69
2022/04/28 11:00:40;;;;;;;12.88;6.72;;;;;;;;;;4403868;32;19985;-68
2022/04/28 11:03:05;;;;;;;12.30;5.40;;;;;;;;;;4404300;32;20038;-69
2022/04/28 11:05:31;;;;;;;;;;;;;;;;;;4405274;32;20122;-70
2022/04/28 11:07:58;;;;;;;16.90;5.65;;;;;;;;;;4405750;32;19949;-69
2022/04/28 11:10:23;;;;;;;9.73;5.15;;;;;;;;;;4406131;32;20477;-69
2022/04/28 11:12:50;;;;;;;11.32;5.10;;;;;;;;;;4406464;32;20069;-69
2022/04/28 11:15:16;;;;;;;13.30;6.22;;;;;;;;;;4404190;32;20027;-69
2022/04/28 11:17:44;;;;;;;11.65;5.90;;;;;;;;;;4405209;32;20022;-70
2022/04/28 11:20:12;;;;;;;8.45;5.40;;;;;;;;;;4404766;32;20056;-69
2022/04/28 11:22:45;;;;;;;12.93;6.03;;;;;;;;;;4405976;32;20043;-70
2022/04/28 11:25:12;;;;;;;14.27;6.55;;;;;;;;;;4390564;32;20027;-68
2022/04/28 11:27:38;;;;;;;15.10;6.05;;;;;;;;;;4405899;32;20447;-70
2022/04/28 11:30:03;;;;;;;11.98;5.95;;;;;;;;;;4405963;32;20105;-70
2022/04/28 11:32:29;;;;;;;11.00;5.93;;;;;;;;;;4404806;32;20440;-69
2022/04/28 11:34:55;;;;;;;14.63;6.87;;;;;;;;;;4391417;32;20106;-69
2022/04/28 11:37:22;;;;;;;11.73;6.18;;;;;;;;;;4393851;32;20102;-69
2022/04/28 11:39:48;;;;;;;14.00;6.18;;;;;;;;;;4402259;32;20044;-70
2022/04/28 11:42:16;;;;;;;12.95;7.15;;;;;;;;;;4405175;32;20038;-70
2022/04/28 11:44:45;;;;;;;9.18;6.32;;;;;;;;;;4406196;32;20073;-70
2022/04/28 11:47:10;;;;;;;10.98;6.43;;;;;;;;;;4406160;32;20299;-70
2022/04/28 11:49:39;;;;;;;10.13;5.72;;;;;;;;;;4404874;32;20094;-69
2022/04/28 11:52:18;;;;;;;14.63;6.72;;;;;;;;;;4389028;32;20041;-70
2022/04/28 11:54:43;;;;;;;11.35;6.00;;;;;;;;;;4404844;32;20098;-70
2022/04/28 11:57:09;;;;;;;15.50;6.18;;;;;;;;;;4406106;32;20187;-69
2022/04/28 11:59:36;;;;;;;13.90;6.37;;;;;;;;;;4405545;32;20053;-69
2022/04/28 12:02:01;;;;;;;12.37;6.97;;;;;;;;;;4406171;32;20056;-68
2022/04/28 12:04:27;;;;;;;12.93;5.78;;;;;;;;;;4405929;32;20043;-70
2022/04/28 12:06:52;;;;;;;11.00;5.78;;;;;;;;;;4408794;32;20433;-70
2022/04/28 12:14:45;;;;;;;12.43;6.62;;;;;;;;;;4394918;32;20057;-70
2022/04/28 12:19:56;;;;;;;13.68;5.97;;;;;;;;;;4408551;32;20381;-70
2022/04/28 12:22:25;;;;;;;12.37;5.87;;;;;;;;;;4392947;32;20053;-69
2022/04/28 12:24:50;;;;;;;10.48;5.90;;;;;;;;;;4392940;32;20056;-70
2022/04/28 12:27:16;;;;;;;9.63;5.50;;;;;;;;;;4408141;32;20026;-70
2022/04/28 12:29:54;;;;;;;11.52;6.32;;;;;;;;;;4393813;32;20355;-70
2022/04/28 12:32:20;;;;;;;12.60;6.85;;;;;;;;;;4407206;32;20398;-70
2022/04/28 12:34:55;;;;;;;12.52;6.00;;;;;;;;;;4406850;32;20416;-70
2022/04/28 12:37:25;;;;;;;11.32;6.55;;;;;;;;;;4407147;32;20018;-70
2022/04/28 12:39:53;;;;;;;9.38;5.78;;;;;;;;;;4392358;32;20081;-70
2022/04/28 12:42:19;;;;;;;10.63;5.60;;;;;;;;;;4418779;32;20079;-68
2022/04/28 12:44:45;;;;;;;11.35;6.57;;;;;;;;;;4408229;32;20037;-70
2022/04/28 12:47:12;;;;;;;11.10;5.97;;;;;;;;;;4407077;32;20018;-70
2022/04/28 12:49:48;;;;;;;13.18;7.40;;;;;;;;;;4394584;32;20026;-70
2022/04/28 12:52:26;;;;;;;8.98;6.60;;;;;;;;;;4408455;32;20072;-70
2022/04/28 12:55:00;;;;;;;11.18;6.43;;;;;;;;;;4408320;32;20057;-70
2022/04/28 12:57:27;;;;;;;10.02;5.65;;;;;;;;;;4409115;32;20397;-70
2022/04/28 12:59:53;;;;;;;9.38;5.97;;;;;;;;;;4408969;32;20114;-70
2022/04/28 13:02:27;;;;;;;12.80;6.12;;;;;;;;;;4409855;32;20397;-70
2022/04/28 13:04:53;;;;;;;9.75;6.10;;;;;;;;;;4408081;32;20109;-70
2022/04/28 13:07:18;;;;;;;11.73;6.40;;;;;;;;;;4409413;32;20053;-70
2022/04/28 13:09:43;;;;;;;10.35;5.60;;;;;;;;;;4406580;32;20026;-69
2022/04/28 13:12:08;;;;;;;9.57;5.43;;;;;;;;;;4409011;32;20107;-71
2022/04/28 13:14:33;;;;;;;12.27;5.97;;;;;;;;;;4406942;32;20479;-72
2022/04/28 13:16:59;;;;;;;10.37;6.03;;;;;;;;;;4407246;32;20505;-71
2022/04/28 13:19:25;;;;;;;13.27;6.43;;;;;;;;;;4394366;32;20145;-69
2022/04/28 13:21:50;;;;;;;14.95;6.22;;;;;;;;;;4407625;32;20410;-70
2022/04/28 13:24:17;;;;;;;10.63;6.10;;;;;;;;;;4408268;32;20022;-71
2022/04/28 13:26:42;;;;;;;13.02;6.80;;;;;;;;;;4408697;32;20062;-70
2022/04/28 13:29:09;;;;;;;9.10;4.97;;;;;;;;;;4395280;32;20317;-70
2022/04/28 13:31:35;;;;;;;9.57;5.82;;;;;;;;;;4407470;32;20209;-71
2022/04/28 13:34:00;;;;;;;11.70;5.78;;;;;;;;;;4409635;32;20154;-70
2022/04/28 13:36:25;;;;;;;10.53;5.60;;;;;;;;;;4408829;32;20079;-70
2022/04/28 13:38:51;;;;;;;11.05;6.25;;;;;;;;;;4408687;32;20451;-70
2022/04/28 13:41:17;;;;;;;10.68;5.62;;;;;;;;;;4407719;32;20101;-71
2022/04/28 13:43:42;;;;;;;10.82;6.70;;;;;;;;;;4409121;32;20031;-70
2022/04/28 13:46:09;;;;;;;16.08;6.82;;;;;;;;;;4408000;32;20097;-71
2022/04/28 13:48:34;;;;;;;13.50;7.07;;;;;;;;;;4405499;32;20031;-71
2022/04/28 13:51:00;;;;;;;11.98;6.15;;;;;;;;;;4407109;32;20077;-70
2022/04/28 13:53:28;;;;;;;11.20;5.43;;;;;;;;;;4406407;32;20061;-70
2022/04/28 13:55:55;;;;;;;8.63;5.28;;;;;;;;;;4407088;32;20035;-70
2022/04/28 13:58:20;;;;;;;12.50;7.10;;;;;;;;;;4407430;32;20026;-69
2022/04/28 14:00:50;;;;;;;12.40;6.20;;;;;;;;;;4407839;32;20309;-69
2022/04/28 14:03:16;;;;;;;12.43;6.62;;;;;;;;;;4407313;32;20057;-69
2022/04/28 14:05:41;;;;;;;10.40;6.30;;;;;;;;;;4407448;32;20105;-70
2022/04/28 14:08:06;;;;;;;11.60;6.25;;;;;;;;;;4407510;32;20018;-69
2022/04/28 14:10:32;;;;;;;10.50;6.35;;;;;;;;;;4407537;32;20018;-69
2022/04/28 14:12:57;;;;;;;11.40;7.05;;;;;;;;;;4399386;32;20571;-70
2022/04/28 14:15:24;;;;;;;11.80;6.13;;;;;;;;;;4390489;32;20145;-69
2022/04/28 14:17:49;;;;;;;15.00;6.30;;;;;;;;;;4390972;32;20463;-69
2022/04/28 14:20:15;;;;;;;11.60;6.60;;;;;;;;;;4392456;32;20415;-68
2022/04/28 14:22:40;;;;;;;13.60;6.20;;;;;;;;;;4416256;32;20335;-68
2022/04/28 14:25:07;;;;;;;10.48;5.68;;;;;;;;;;4409101;32;20026;-69
2022/04/28 14:27:35;;;;;;;14.00;6.10;;;;;;;;;;4406630;32;20113;-69
2022/04/28 14:30:05;;;;;;;10.40;5.32;;;;;;;;;;4405656;32;20065;-69
2022/04/28 14:32:31;;;;;;;10.93;5.57;;;;;;;;;;4405448;32;20018;-69
2022/04/28 14:34:56;;;;;;;23.38;6.65;;;;;;;;;;4404865;32;20387;-69
2022/04/28 14:37:21;;;;;;;10.93;5.53;;;;;;;;;;4406547;32;20023;-70
2022/04/28 14:39:46;;;;;;;9.53;5.77;;;;;;;;;;4405238;32;20508;-69
2022/04/28 14:42:12;;;;;;;10.95;5.65;;;;;;;;;;4405355;32;20118;-70
2022/04/28 14:44:37;;;;;;;11.20;6.07;;;;;;;;;;4405282;32;20117;-70
2022/04/28 14:47:02;;;;;;;12.80;6.25;;;;;;;;;;4405571;32;20069;-68
2022/04/28 14:52:21;;;;;;;7.82;5.57;;;;;;;;;;4406306;32;20072;-69
2022/04/28 14:54:53;;;;;;;12.45;5.15;;;;;;;;;;4406348;32;20022;-70
2022/04/28 14:57:18;;;;;;;11.68;5.82;;;;;;;;;;4405163;32;20038;-69
2022/04/28 14:59:43;;;;;;;11.60;6.18;;;;;;;;;;4406675;32;20030;-70
2022/04/28 15:02:10;;;;;;;14.83;6.17;;;;;;;;;;4405746;32;20463;-70
2022/04/28 15:04:35;;;;;;;15.30;6.40;;;;;;;;;;4404911;32;20130;-71
2022/04/28 15:07:00;;;;;;;12.37;5.83;;;;;;;;;;4406122;32;20037;-70
2022/04/28 15:09:26;;;;;;;14.60;6.43;;;;;;;;;;4392953;32;20172;-71
2022/04/28 15:11:52;;;;;;;14.27;5.50;;;;;;;;;;4390059;32;20030;-70
2022/04/28 15:14:17;;;;;;;12.75;5.70;;;;;;;;;;4391755;32;20030;-69
2022/04/28 15:16:42;;;;;;;11.88;5.05;;;;;;;;;;4391495;32;20089;-70
2022/04/28 15:19:07;;;;;;;15.77;6.95;;;;;;;;;;4405220;32;20188;-70
2022/04/28 15:21:32;;;;;;;10.60;5.83;;;;;;;;;;4404823;32;20026;-70
2022/04/28 15:23:58;;;;;;;12.17;5.20;;;;;;;;;;4404415;32;20119;-70
2022/04/28 15:26:23;;;;;;;14.95;6.30;;;;;;;;;;4404862;32;20119;-69
2022/04/28 15:28:49;;;;;;;12.00;5.60;;;;;;;;;;4404681;32;20416;-69
2022/04/28 15:31:14;;;;;;;10.75;5.82;;;;;;;;;;4405241;32;20494;-69
2022/04/28 15:33:39;;;;;;;12.77;5.53;;;;;;;;;;4405728;32;20062;-69